Time;durP1;ratioP1;P1;durP2;ratioP2;P2;SDS_P1;SDS_P2;PMS_P1;PMS_P2;Temp;Humidity;BMP_temperature;BMP_pressure;BME280_temperature;BME280_humidity;BME280_pressure;Samples;Min_cycle;Max_cycle;Signal;HPM_P1;HPM_P2
2022/03/26 00:01:25;;;;;;;25.48;18.88;;;;;;;5.13;100.00;101207.03;5031349;28;20036;-69
2022/03/26 00:03:51;;;;;;;25.60;18.65;;;;;;;5.26;100.00;101234.94;5031036;28;20053;-68
2022/03/26 00:06:16;;;;;;;24.75;18.88;;;;;;;4.99;100.00;101193.38;5030862;28;20026;-69
2022/03/26 00:08:42;;;;;;;27.73;19.17;;;;;;;4.93;100.00;101194.13;5030879;28;20462;-68
2022/03/26 00:11:07;;;;;;;24.83;18.35;;;;;;;5.17;100.00;101249.91;5030798;28;20117;-69
2022/03/26 00:13:32;;;;;;;24.50;18.05;;;;;;;4.98;100.00;101215.19;5031100;28;20032;-71
2022/03/26 00:15:58;;;;;;;26.13;18.15;;;;;;;5.52;100.00;101264.69;5027541;28;20470;-69
2022/03/26 00:18:23;;;;;;;38.22;24.25;;;;;;;4.79;100.00;101268.66;5011523;28;20026;-69
2022/03/26 00:20:49;;;;;;;31.85;21.90;;;;;;;4.71;100.00;101201.34;5011283;28;20022;-70
2022/03/26 00:23:14;;;;;;;29.88;21.63;;;;;;;4.93;100.00;101210.94;5011371;28;20061;-69
2022/03/26 00:25:40;;;;;;;29.33;20.42;;;;;;;4.23;100.00;101182.13;5011025;28;20377;-70
2022/03/26 00:28:06;;;;;;;29.23;19.73;;;;;;;4.95;100.00;101230.25;5011344;28;20034;-70
2022/03/26 00:30:31;;;;;;;23.80;17.92;;;;;;;4.96;100.00;101203.41;5010075;28;20917;-71
2022/03/26 00:32:57;;;;;;;26.48;18.38;;;;;;;5.08;100.00;101214.50;5011100;28;20661;-71
2022/03/26 00:35:22;;;;;;;24.63;17.55;;;;;;;5.16;100.00;101244.84;5026308;28;20167;-69
2022/03/26 00:37:48;;;;;;;27.50;18.20;;;;;;;5.10;100.00;101273.34;5009732;28;20041;-69
2022/03/26 00:40:13;;;;;;;23.05;17.50;;;;;;;5.12;100.00;101215.38;5010727;28;20033;-69
2022/03/26 00:42:39;;;;;;;22.65;17.25;;;;;;;5.26;100.00;101227.38;5011173;28;20026;-68
2022/03/26 00:45:06;;;;;;;34.25;22.83;;;;;;;4.64;100.00;101285.16;5009514;28;20044;-69
2022/03/26 00:47:31;;;;;;;38.13;24.88;;;;;;;4.13;100.00;101238.13;5011155;28;20360;-69
2022/03/26 00:49:57;;;;;;;39.08;25.10;;;;;;;4.28;100.00;101238.38;5010863;28;20029;-70
2022/03/26 00:52:23;;;;;;;34.90;24.27;;;;;;;4.57;100.00;101285.88;5010560;28;20029;-70
2022/03/26 00:54:48;;;;;;;36.60;24.58;;;;;;;4.24;100.00;101170.34;5028642;28;20108;-69
2022/03/26 00:57:16;;;;;;;30.55;23.48;;;;;;;4.90;100.00;101289.81;5030416;28;20036;-69
2022/03/26 00:59:42;;;;;;;36.38;25.20;;;;;;;4.55;100.00;101283.34;5029009;28;20036;-71
2022/03/26 01:02:07;;;;;;;31.25;22.02;;;;;;;4.70;100.00;101265.97;4877479;22;10001490;-69
2022/03/26 01:04:33;;;;;;;27.98;21.55;;;;;;;4.74;100.00;101259.31;5045832;28;20087;-69
2022/03/26 01:06:58;;;;;;;27.70;20.33;;;;;;;4.84;100.00;101266.19;5036187;28;20032;-70
2022/03/26 01:09:24;;;;;;;27.13;19.95;;;;;;;5.03;100.00;101283.31;5034861;28;20122;-69
2022/03/26 01:11:49;;;;;;;25.80;19.65;;;;;;;4.95;100.00;101294.94;5030314;28;20419;-69
2022/03/26 01:14:15;;;;;;;32.13;19.65;;;;;;;5.54;100.00;101281.53;5028382;28;20259;-69
2022/03/26 01:16:40;;;;;;;26.13;19.60;;;;;;;5.16;100.00;101267.53;5029950;28;20032;-70
2022/03/26 01:19:06;;;;;;;25.02;17.77;;;;;;;5.56;100.00;101284.06;5029505;28;20073;-69
2022/03/26 01:21:31;;;;;;;25.73;16.60;;;;;;;5.59;100.00;101284.94;5029952;28;20056;-70
2022/03/26 01:23:57;;;;;;;23.88;14.70;;;;;;;5.70;100.00;101252.31;5029963;28;20407;-70
2022/03/26 01:26:22;;;;;;;22.23;15.38;;;;;;;5.63;100.00;101266.50;5030173;28;20034;-70
2022/03/26 01:28:48;;;;;;;21.13;14.90;;;;;;;5.97;100.00;101277.88;5029931;28;20037;-70
2022/03/26 01:31:13;;;;;;;19.50;13.65;;;;;;;5.93;100.00;101293.81;5029833;28;20029;-70
2022/03/26 01:33:39;;;;;;;17.13;12.80;;;;;;;5.87;100.00;101264.31;5029474;28;20495;-68
2022/03/26 01:36:07;;;;;;;16.88;12.40;;;;;;;5.86;100.00;101299.63;5029373;28;20033;-70
2022/03/26 01:38:32;;;;;;;16.90;12.50;;;;;;;6.00;100.00;101296.44;5029814;28;20030;-70
2022/03/26 01:40:58;;;;;;;15.65;12.20;;;;;;;5.87;100.00;101303.84;5029669;28;20060;-69
2022/03/26 01:43:23;;;;;;;16.42;12.48;;;;;;;5.73;100.00;101259.88;5028595;28;20030;-68
2022/03/26 01:45:49;;;;;;;18.05;12.23;;;;;;;5.86;100.00;101297.09;5029879;28;20029;-70
2022/03/26 01:48:14;;;;;;;15.65;11.98;;;;;;;5.63;100.00;101291.72;5029381;28;20029;-69
2022/03/26 01:50:42;;;;;;;16.48;12.02;;;;;;;5.97;100.00;101285.44;5029575;28;20053;-70
2022/03/26 01:53:07;;;;;;;20.38;12.20;;;;;;;5.57;100.00;101276.50;5029808;28;20052;-70
2022/03/26 01:55:34;;;;;;;18.65;12.20;;;;;;;5.94;100.00;101303.09;5029087;28;20475;-69
2022/03/26 01:58:00;;;;;;;16.40;11.95;;;;;;;5.85;100.00;101303.81;5030974;28;20491;-70
2022/03/26 02:00:25;;;;;;;18.15;12.52;;;;;;;5.63;100.00;101299.28;5033406;28;20563;-70
2022/03/26 02:02:51;;;;;;;15.85;12.27;;;;;;;5.64;100.00;101273.25;5033058;28;20132;-70
2022/03/26 02:05:20;;;;;;;18.63;13.13;;;;;;;5.59;100.00;101296.69;5033388;28;20029;-70
2022/03/26 02:07:48;;;;;;;17.52;12.15;;;;;;;5.98;100.00;101297.25;5032386;28;20029;-69
2022/03/26 02:10:17;;;;;;;16.95;12.20;;;;;;;5.63;100.00;101273.22;5033551;28;20033;-69
2022/03/26 02:12:45;;;;;;;17.02;11.45;;;;;;;5.52;100.00;101284.84;5033675;28;20499;-70
2022/03/26 02:15:11;;;;;;;15.77;12.07;;;;;;;5.77;100.00;101324.69;5033338;28;20025;-69
2022/03/26 02:17:37;;;;;;;24.50;15.95;;;;;;;5.03;100.00;101289.16;5033302;28;20037;-70
2022/03/26 02:20:08;;;;;;;27.15;19.30;;;;;;;5.26;100.00;101322.31;5032385;28;20479;-69
2022/03/26 02:22:34;;;;;;;29.20;21.13;;;;;;;5.32;100.00;101301.38;5033632;28;20152;-70
2022/03/26 02:25:00;;;;;;;27.50;19.70;;;;;;;4.83;100.00;101323.28;5032292;28;20151;-69
2022/03/26 02:27:29;;;;;;;31.55;22.60;;;;;;;4.85;100.00;101318.28;5032072;28;20044;-69
2022/03/26 02:29:54;;;;;;;25.65;18.33;;;;;;;5.08;100.00;101324.53;5033326;28;20554;-70
2022/03/26 02:32:21;;;;;;;28.27;17.25;;;;;;;5.14;100.00;101337.22;5031513;28;20117;-70
2022/03/26 02:34:48;;;;;;;27.58;17.40;;;;;;;4.88;100.00;101333.44;5033115;28;20068;-69
2022/03/26 02:37:14;;;;;;;26.92;17.70;;;;;;;4.72;100.00;101347.44;5031953;28;20025;-69
2022/03/26 02:39:40;;;;;;;24.92;17.23;;;;;;;4.60;100.00;101306.94;5033448;28;20033;-70
2022/03/26 02:42:05;;;;;;;25.20;18.13;;;;;;;4.58;100.00;101353.88;5032540;28;20037;-69
2022/03/26 02:44:31;;;;;;;26.70;17.58;;;;;;;4.78;100.00;101311.44;5033297;28;20029;-69
2022/03/26 02:46:56;;;;;;;25.40;17.70;;;;;;;4.77;100.00;101343.34;5033046;28;20037;-69
2022/03/26 02:49:21;;;;;;;26.70;19.23;;;;;;;4.35;100.00;101298.09;5032852;28;20029;-70
2022/03/26 02:51:47;;;;;;;27.52;19.20;;;;;;;4.62;100.00;101324.56;5033065;28;20036;-70
2022/03/26 02:54:18;;;;;;;31.00;18.33;;;;;;;4.55;100.00;101368.09;5033213;28;20029;-70
2022/03/26 02:56:51;;;;;;;28.20;18.13;;;;;;;4.95;100.00;101342.81;5032831;28;20321;-69
2022/03/26 02:59:18;;;;;;;25.88;17.95;;;;;;;3.99;100.00;101336.78;5032442;28;20048;-69
2022/03/26 03:01:44;;;;;;;27.48;17.40;;;;;;;3.91;100.00;101338.28;5032500;28;20426;-69
2022/03/26 03:04:09;;;;;;;29.35;18.02;;;;;;;3.96;100.00;101377.00;5031116;28;20025;-70
2022/03/26 03:06:36;;;;;;;24.70;16.88;;;;;;;4.15;100.00;101362.31;5032105;28;20031;-69
2022/03/26 03:09:06;;;;;;;26.02;16.42;;;;;;;4.60;100.00;101356.44;5031529;28;20034;-70
2022/03/26 03:11:32;;;;;;;22.35;16.40;;;;;;;4.15;100.00;101381.56;5031905;28;20095;-70
2022/03/26 03:13:58;;;;;;;24.50;16.50;;;;;;;4.36;100.00;101361.84;5031731;28;20029;-69
2022/03/26 03:16:24;;;;;;;27.50;16.73;;;;;;;4.64;100.00;101378.34;5032144;28;20541;-70
2022/03/26 03:18:50;;;;;;;21.52;15.40;;;;;;;5.09;100.00;101374.13;5032107;28;20219;-70
2022/03/26 03:21:16;;;;;;;22.35;15.93;;;;;;;4.66;100.00;101377.53;5031894;28;20385;-69
2022/03/26 03:23:41;;;;;;;21.05;15.02;;;;;;;4.64;100.00;101368.25;5032015;28;20036;-69
2022/03/26 03:26:07;;;;;;;22.50;16.05;;;;;;;4.48;100.00;101379.72;5032048;28;20033;-69
2022/03/26 03:28:33;;;;;;;19.90;14.02;;;;;;;4.54;100.00;101369.75;5031575;28;20033;-69
2022/03/26 03:30:58;;;;;;;20.73;14.57;;;;;;;4.57;100.00;101347.19;5031968;28;20156;-69
2022/03/26 03:33:25;;;;;;;19.80;14.60;;;;;;;4.77;100.00;101355.09;5030362;28;20033;-70
2022/03/26 03:35:50;;;;;;;20.70;15.18;;;;;;;4.99;100.00;101365.53;5031570;28;20033;-69
2022/03/26 03:38:16;;;;;;;22.60;14.77;;;;;;;4.96;100.00;101372.19;5031227;28;20056;-69
2022/03/26 03:40:41;;;;;;;21.75;14.27;;;;;;;4.91;100.00;101372.13;5031613;28;20091;-69
2022/03/26 03:43:07;;;;;;;20.50;14.90;;;;;;;4.89;100.00;101375.44;5029396;28;20418;-69
2022/03/26 03:45:34;;;;;;;22.33;14.68;;;;;;;5.23;100.00;101365.09;5031580;28;20163;-69
2022/03/26 03:48:00;;;;;;;20.30;13.95;;;;;;;5.16;100.00;101379.28;5031607;28;20026;-69
2022/03/26 03:50:26;;;;;;;18.02;13.48;;;;;;;5.03;100.00;101349.66;5031124;28;20116;-69
2022/03/26 03:52:52;;;;;;;21.02;13.40;;;;;;;5.11;100.00;101350.63;5031681;28;20048;-70
2022/03/26 03:55:17;;;;;;;19.70;13.77;;;;;;;5.13;100.00;101355.72;5031185;28;20030;-69
2022/03/26 03:57:43;;;;;;;17.90;12.70;;;;;;;5.45;100.00;101349.47;5030801;28;20030;-69
2022/03/26 04:00:12;;;;;;;19.67;12.63;;;;;;;5.36;100.00;101351.00;5029886;28;20029;-69
2022/03/26 04:02:37;;;;;;;17.98;13.30;;;;;;;5.41;100.00;101357.00;5028879;28;20503;-69
2022/03/26 04:05:03;;;;;;;27.70;17.60;;;;;;;5.29;100.00;101380.31;5030145;28;20065;-66
2022/03/26 04:07:29;;;;;;;37.28;22.95;;;;;;;4.78;100.00;101384.47;5029852;28;20048;-70
2022/03/26 04:09:54;;;;;;;25.83;18.77;;;;;;;4.30;100.00;101367.63;5031288;28;20506;-70
2022/03/26 04:12:19;;;;;;;66.53;48.60;;;;;;;4.57;100.00;101391.63;5029406;28;20124;-69
2022/03/26 04:14:45;;;;;;;43.65;31.10;;;;;;;4.39;100.00;101366.97;5031607;28;20476;-70
2022/03/26 04:17:12;;;;;;;33.45;23.55;;;;;;;3.76;100.00;101364.00;5031281;28;20030;-69
2022/03/26 04:19:38;;;;;;;34.67;23.17;;;;;;;3.76;100.00;101391.66;5029702;28;20068;-69
2022/03/26 04:22:05;;;;;;;32.20;22.88;;;;;;;3.67;100.00;101400.63;5029641;28;20148;-69
2022/03/26 04:24:31;;;;;;;31.52;22.45;;;;;;;3.70;100.00;101373.06;5031091;28;20025;-69
2022/03/26 04:26:56;;;;;;;35.60;21.85;;;;;;;3.85;100.00;101374.22;5030683;28;20021;-68
2022/03/26 04:29:21;;;;;;;34.28;23.95;;;;;;;4.20;100.00;101415.22;5031351;28;20036;-70
2022/03/26 04:31:47;;;;;;;29.55;20.85;;;;;;;2.86;100.00;101390.28;5031240;28;20039;-69
2022/03/26 04:34:13;;;;;;;24.52;18.23;;;;;;;2.22;100.00;101391.88;5030903;28;20029;-69
2022/03/26 04:36:38;;;;;;;28.83;18.58;;;;;;;2.85;100.00;101407.81;5030962;28;20060;-68
2022/03/26 04:39:04;;;;;;;24.73;17.80;;;;;;;3.06;100.00;101411.72;5031029;28;20072;-68
2022/03/26 04:41:29;;;;;;;44.20;22.98;;;;;;;3.12;100.00;101411.03;5028281;28;20029;-67
2022/03/26 04:43:56;;;;;;;39.92;23.65;;;;;;;2.81;100.00;101389.31;5029201;28;20052;-69
2022/03/26 04:46:21;;;;;;;41.83;24.75;;;;;;;3.62;100.00;101410.59;5030102;28;20510;-69
2022/03/26 04:48:46;;;;;;;30.23;19.95;;;;;;;3.25;100.00;101416.41;5030723;28;20029;-68
2022/03/26 04:51:13;;;;;;;28.15;18.95;;;;;;;3.28;100.00;101416.50;5031135;28;20060;-68
2022/03/26 04:53:39;;;;;;;30.70;20.35;;;;;;;3.97;100.00;101389.59;5030737;28;20029;-68
2022/03/26 04:56:05;;;;;;;28.38;18.58;;;;;;;4.06;100.00;101411.59;5030247;28;20112;-68
2022/03/26 04:58:30;;;;;;;38.10;26.50;;;;;;;3.76;100.00;101413.41;5030132;28;20112;-68
2022/03/26 05:00:56;;;;;;;248.13;149.77;;;;;;;3.88;100.00;101406.97;5030235;28;20075;-69
2022/03/26 05:03:21;;;;;;;173.45;107.35;;;;;;;3.85;100.00;101413.63;5030425;28;20175;-68
2022/03/26 05:05:47;;;;;;;127.38;79.90;;;;;;;3.90;100.00;101386.91;5029680;28;20075;-70
2022/03/26 05:08:12;;;;;;;64.30;44.15;;;;;;;4.01;100.00;101386.31;5028032;28;20033;-70
2022/03/26 05:10:37;;;;;;;58.45;36.67;;;;;;;4.17;100.00;101403.44;5027621;28;20503;-68
2022/03/26 05:13:03;;;;;;;54.55;35.10;;;;;;;4.13;100.00;101410.88;5029740;28;20137;-69
2022/03/26 05:15:29;;;;;;;91.93;57.83;;;;;;;4.33;100.00;101423.06;5029474;28;20030;-69
2022/03/26 05:17:56;;;;;;;161.60;103.85;;;;;;;4.35;100.00;101397.94;5029000;28;20542;-69
2022/03/26 05:20:23;;;;;;;60.72;40.70;;;;;;;4.13;100.00;101366.44;5029540;28;20112;-69
2022/03/26 05:22:49;;;;;;;48.47;32.15;;;;;;;5.01;100.00;101416.81;5029966;28;20499;-69
2022/03/26 05:25:16;;;;;;;52.70;35.25;;;;;;;4.94;100.00;101427.63;5027673;28;20133;-68
2022/03/26 05:27:45;;;;;;;48.75;35.72;;;;;;;5.47;100.00;101420.94;5029622;28;20025;-68
2022/03/26 05:30:12;;;;;;;45.28;32.28;;;;;;;5.52;100.00;101398.34;5029238;28;20033;-69
2022/03/26 05:32:37;;;;;;;41.80;31.77;;;;;;;5.69;100.00;101434.75;5031998;28;20029;-68
2022/03/26 05:35:06;;;;;;;46.03;32.78;;;;;;;5.55;100.00;101424.44;5031739;28;20087;-68
2022/03/26 05:37:32;;;;;;;30.00;20.75;;;;;;;5.27;100.00;101425.66;5033555;28;20026;-68
2022/03/26 05:39:57;;;;;;;33.88;20.65;;;;;;;5.69;100.00;101422.97;5033897;28;20052;-70
2022/03/26 05:42:23;;;;;;;34.08;21.25;;;;;;;5.87;100.00;101404.78;5034264;28;20116;-70
2022/03/26 05:44:49;;;;;;;28.52;20.95;;;;;;;6.04;100.00;101416.78;5034183;28;20053;-70
2022/03/26 05:47:15;;;;;;;25.60;18.75;;;;;;;6.61;100.00;101408.25;5033796;28;20122;-70
2022/03/26 05:49:40;;;;;;;29.05;19.75;;;;;;;7.03;100.00;101417.09;5033700;28;20151;-69
2022/03/26 05:52:06;;;;;;;27.30;19.63;;;;;;;5.42;100.00;101407.44;5032133;28;20034;-69
2022/03/26 05:54:31;;;;;;;29.67;19.15;;;;;;;5.81;100.00;101385.31;5032974;28;20116;-71
2022/03/26 05:56:57;;;;;;;29.10;20.25;;;;;;;5.95;100.00;101421.72;5018910;28;20117;-70
2022/03/26 05:59:25;;;;;;;34.67;22.50;;;;;;;6.37;100.00;101426.50;5013636;28;20401;-70
2022/03/26 06:01:54;;;;;;;30.02;20.48;;;;;;;6.97;100.00;101439.78;5013449;28;20128;-69
2022/03/26 06:04:21;;;;;;;29.85;20.88;;;;;;;6.33;100.00;101436.53;5022966;28;20030;-69
2022/03/26 06:06:48;;;;;;;26.33;19.95;;;;;;;5.79;100.00;101409.69;5031415;28;20043;-71
2022/03/26 06:09:13;;;;;;;28.00;18.80;;;;;;;6.89;100.00;101413.59;5042444;28;20033;-70
2022/03/26 06:11:39;;;;;;;24.40;19.30;;;;;;;6.54;100.00;101447.75;5032884;28;20028;-70
2022/03/26 06:14:04;;;;;;;30.50;21.02;;;;;;;7.12;100.00;101440.78;5033790;28;20025;-69
2022/03/26 06:16:30;;;;;;;29.65;20.38;;;;;;;7.35;100.00;101414.88;5031942;28;20041;-70
2022/03/26 06:18:56;;;;;;;34.60;23.05;;;;;;;7.65;100.00;101448.00;5033809;28;20036;-70
2022/03/26 06:21:22;;;;;;;27.40;22.08;;;;;;;7.96;100.00;101436.41;5033125;28;20033;-69
2022/03/26 06:23:47;;;;;;;27.15;21.00;;;;;;;7.62;100.00;101416.78;5033070;28;20025;-69
2022/03/26 06:26:13;;;;;;;29.45;21.58;;;;;;;7.68;100.00;101396.56;5033425;28;20029;-69
2022/03/26 06:28:39;;;;;;;24.02;19.08;;;;;;;7.84;100.00;101424.50;5032999;28;20451;-70
2022/03/26 06:31:08;;;;;;;26.88;19.25;;;;;;;8.54;100.00;101448.56;5033027;28;20036;-68
2022/03/26 06:33:34;;;;;;;24.02;18.23;;;;;;;8.02;100.00;101455.84;5033180;28;20032;-69
2022/03/26 06:36:00;;;;;;;22.73;18.17;;;;;;;8.51;100.00;101450.22;5032939;28;20072;-70
2022/03/26 06:38:31;;;;;;;23.10;18.23;;;;;;;9.06;100.00;101396.28;5032940;28;20120;-70
2022/03/26 06:40:58;;;;;;;21.87;18.30;;;;;;;9.11;100.00;101454.66;4332606;28;10000699;-67
2022/03/26 06:43:24;;;;;;;32.88;22.95;;;;;;;8.44;100.00;101420.63;5027023;28;20467;-68
2022/03/26 06:45:51;;;;;;;29.85;21.95;;;;;;;9.14;100.00;101439.41;5029337;28;20042;-67
2022/03/26 06:48:16;;;;;;;29.98;21.80;;;;;;;8.56;100.00;101439.28;5016162;28;20036;-67
2022/03/26 06:50:42;;;;;;;31.38;25.48;;;;;;;8.36;100.00;101433.25;5009351;28;20029;-68
2022/03/26 06:53:08;;;;;;;27.52;21.20;;;;;;;8.75;100.00;101441.00;5008789;28;20057;-67
2022/03/26 06:55:33;;;;;;;22.38;18.80;;;;;;;8.28;100.00;101457.72;5009322;28;20041;-67
2022/03/26 06:57:59;;;;;;;22.58;17.45;;;;;;;7.58;100.00;101430.25;5009664;28;20038;-68
2022/03/26 07:00:25;;;;;;;23.35;19.10;;;;;;;8.15;100.00;101463.53;5009316;28;20522;-66
2022/03/26 07:02:51;;;;;;;24.88;20.17;;;;;;;8.06;100.00;101444.91;5008943;28;20430;-67
2022/03/26 07:05:17;;;;;;;23.08;19.35;;;;;;;9.96;100.00;101465.66;5007784;28;20038;-67
2022/03/26 07:07:43;;;;;;;23.05;17.77;;;;;;;9.48;100.00;101425.91;5009418;28;20045;-68
2022/03/26 07:10:09;;;;;;;20.15;16.00;;;;;;;8.35;100.00;101463.66;5009098;28;20044;-66
2022/03/26 07:12:35;;;;;;;22.13;16.05;;;;;;;9.83;100.00;101463.97;5008865;28;20088;-69
2022/03/26 07:15:01;;;;;;;25.80;19.05;;;;;;;10.46;99.67;101435.88;5008240;28;20038;-68
2022/03/26 07:17:26;;;;;;;30.00;24.02;;;;;;;10.10;91.75;101464.78;5008984;28;20033;-69
2022/03/26 07:19:52;;;;;;;31.40;24.48;;;;;;;9.95;100.00;101467.34;5008670;28;20092;-69
2022/03/26 07:22:18;;;;;;;75.30;62.20;;;;;;;11.53;92.15;101449.66;5008694;28;20028;-70
2022/03/26 07:24:44;;;;;;;48.40;37.70;;;;;;;11.16;88.14;101464.34;5009194;28;20062;-69
2022/03/26 07:27:09;;;;;;;43.60;36.15;;;;;;;11.68;81.26;101455.50;5008989;28;20062;-68
2022/03/26 07:29:38;;;;;;;39.50;32.65;;;;;;;11.48;81.39;101403.00;5007479;28;20128;-69
2022/03/26 07:32:09;;;;;;;36.63;29.40;;;;;;;10.85;81.74;101458.63;5023831;28;20645;-69
2022/03/26 07:34:35;;;;;;;27.38;22.60;;;;;;;10.45;86.37;101432.50;5008568;28;20030;-69
2022/03/26 07:37:01;;;;;;;35.08;26.77;;;;;;;12.23;78.61;101422.66;5009121;28;20049;-68
2022/03/26 07:39:27;;;;;;;27.00;19.52;;;;;;;12.17;73.43;101415.94;5014465;28;20029;-69
2022/03/26 07:41:53;;;;;;;16.42;13.93;;;;;;;12.52;71.39;101438.44;5048259;28;20108;-71
2022/03/26 07:44:18;;;;;;;19.67;13.52;;;;;;;12.27;70.02;101392.84;5036091;28;20124;-68
2022/03/26 07:46:44;;;;;;;19.52;14.40;;;;;;;12.74;70.81;101408.38;5018011;28;20076;-69
2022/03/26 07:49:10;;;;;;;19.67;13.98;;;;;;;12.38;68.75;101419.09;5022780;28;20037;-69
2022/03/26 07:51:35;;;;;;;16.02;13.35;;;;;;;12.97;67.40;101437.81;5027900;28;20031;-69
2022/03/26 07:54:01;;;;;;;19.15;14.68;;;;;;;13.62;67.13;101446.22;5022580;28;20456;-68
2022/03/26 07:56:27;;;;;;;15.57;13.73;;;;;;;13.21;64.26;101408.56;5019128;28;20040;-69
2022/03/26 07:58:53;;;;;;;14.98;13.38;;;;;;;13.54;61.76;101438.69;5027847;28;20056;-66
2022/03/26 08:01:19;;;;;;;15.13;12.70;;;;;;;13.04;65.31;101408.84;5028211;28;20095;-73
2022/03/26 08:03:45;;;;;;;16.90;12.75;;;;;;;14.40;62.65;101438.84;5027557;28;20099;-69
2022/03/26 08:06:10;;;;;;;23.92;16.20;;;;;;;12.89;62.71;101418.41;5026139;28;20033;-72
2022/03/26 08:08:36;;;;;;;19.73;13.80;;;;;;;14.40;60.66;101385.94;5028213;28;20491;-68
2022/03/26 08:11:02;;;;;;;18.52;13.18;;;;;;;14.72;60.30;101421.09;5028003;28;20713;-70
2022/03/26 08:13:28;;;;;;;16.20;13.30;;;;;;;13.69;60.37;101427.34;5027941;28;20116;-67
2022/03/26 08:15:54;;;;;;;17.80;14.20;;;;;;;14.08;56.64;101425.81;5026798;28;20045;-70
2022/03/26 08:18:19;;;;;;;15.93;12.52;;;;;;;14.82;52.63;101399.53;5027544;28;20123;-68
2022/03/26 08:20:46;;;;;;;15.40;12.38;;;;;;;14.47;53.44;101402.00;5027954;28;20075;-69
2022/03/26 08:23:12;;;;;;;14.23;11.77;;;;;;;14.37;52.67;101419.28;5027213;28;20126;-69
2022/03/26 08:28:21;;;;;;;29.25;16.52;;;;;;;15.07;53.29;101408.34;5025551;28;20060;-71
2022/03/26 08:30:47;;;;;;;17.10;13.30;;;;;;;14.33;51.27;101404.00;5007875;28;20472;-70
2022/03/26 08:33:13;;;;;;;13.75;11.70;;;;;;;12.41;52.08;101419.03;5024451;28;20033;-68
2022/03/26 08:35:40;;;;;;;14.15;12.65;;;;;;;14.68;50.29;101398.97;5027109;28;20040;-67
2022/03/26 08:38:07;;;;;;;32.22;16.25;;;;;;;14.56;50.34;101399.25;5015947;28;20026;-68
2022/03/26 08:40:35;;;;;;;33.65;17.08;;;;;;;15.10;49.80;101372.41;5033387;28;20120;-67
2022/03/26 08:43:01;;;;;;;14.90;12.75;;;;;;;14.78;49.69;101408.16;5011659;28;20025;-71
2022/03/26 08:45:27;;;;;;;17.02;12.48;;;;;;;15.37;49.05;101393.97;5006686;28;20099;-66
2022/03/26 08:47:53;;;;;;;15.93;11.98;;;;;;;15.86;49.08;101357.66;5007517;28;20036;-67
2022/03/26 08:50:19;;;;;;;14.50;12.05;;;;;;;15.29;49.62;101391.56;5007315;28;20503;-65
2022/03/26 08:52:48;;;;;;;15.82;12.20;;;;;;;14.97;49.64;101367.59;5005477;28;20038;-65
2022/03/26 08:55:17;;;;;;;14.48;11.55;;;;;;;14.02;47.98;101398.63;5007023;28;20033;-65
2022/03/26 08:57:44;;;;;;;118.15;43.30;;;;;;;14.85;47.85;101371.31;5006982;28;20496;-67
2022/03/26 09:00:11;;;;;;;44.05;21.05;;;;;;;14.71;47.41;101388.69;5007108;28;20085;-68
2022/03/26 09:02:38;;;;;;;50.55;24.55;;;;;;;15.40;45.58;101388.75;5005593;28;20483;-67
2022/03/26 09:05:07;;;;;;;14.65;11.43;;;;;;;16.08;47.60;101363.88;5006850;28;20037;-66
2022/03/26 09:07:33;;;;;;;13.57;10.77;;;;;;;15.80;45.77;101386.03;5005310;28;20033;-67
2022/03/26 09:09:59;;;;;;;12.77;11.05;;;;;;;16.36;46.27;101380.97;5006862;28;20038;-70
2022/03/26 09:12:24;;;;;;;15.70;11.75;;;;;;;16.23;45.50;101371.13;5006986;28;20038;-70
2022/03/26 09:14:50;;;;;;;15.40;11.68;;;;;;;16.28;45.84;101344.44;5007844;28;20033;-69
2022/03/26 09:17:15;;;;;;;34.33;22.48;;;;;;;14.87;46.77;101381.50;5006891;28;20034;-71
2022/03/26 09:19:41;;;;;;;14.77;11.07;;;;;;;15.80;46.76;101368.06;5021835;28;20042;-71
2022/03/26 09:22:06;;;;;;;31.45;21.13;;;;;;;16.15;45.41;101368.78;5008692;28;20055;-71
2022/03/26 09:24:32;;;;;;;12.48;11.15;;;;;;;14.60;46.13;101342.00;5027570;28;20037;-72
2022/03/26 09:26:57;;;;;;;13.80;12.00;;;;;;;16.45;44.31;101359.34;5025257;28;20124;-68
2022/03/26 09:29:23;;;;;;;14.13;11.60;;;;;;;16.57;43.89;101337.63;5027057;28;20035;-70
2022/03/26 09:31:48;;;;;;;13.50;10.82;;;;;;;15.61;45.04;101352.31;5014619;28;20025;-73
2022/03/26 09:34:13;;;;;;;13.88;11.20;;;;;;;15.35;46.36;101339.34;5010937;28;20033;-73
2022/03/26 09:36:39;;;;;;;13.80;11.52;;;;;;;16.87;45.21;101350.38;5007179;28;20026;-74
2022/03/26 09:39:04;;;;;;;13.80;10.60;;;;;;;16.66;43.75;101357.91;5008695;28;20388;-71
2022/03/26 09:41:31;;;;;;;12.98;10.70;;;;;;;17.28;43.25;101319.00;5046754;28;20033;-71
2022/03/26 09:43:57;;;;;;;14.10;11.48;;;;;;;16.99;43.71;101352.53;5021165;28;20026;-70
2022/03/26 09:46:24;;;;;;;14.45;11.40;;;;;;;16.19;44.51;101331.88;5009388;28;20064;-71
2022/03/26 09:48:50;;;;;;;12.55;10.23;;;;;;;17.00;43.31;101349.06;5024961;28;20428;-69
2022/03/26 09:51:19;;;;;;;12.00;10.80;;;;;;;17.76;43.61;101336.22;5029224;28;20021;-68
2022/03/26 09:53:45;;;;;;;13.40;10.98;;;;;;;17.52;42.34;101311.34;5046594;28;20057;-69
2022/03/26 09:56:12;;;;;;;14.65;11.32;;;;;;;16.95;43.28;101335.53;5046120;28;20071;-69
2022/03/26 09:58:37;;;;;;;11.23;10.05;;;;;;;17.11;42.48;101305.03;5046674;28;20033;-70
2022/03/26 10:01:03;;;;;;;14.80;12.73;;;;;;;16.62;43.45;101299.81;5047177;28;20051;-69
2022/03/26 10:03:28;;;;;;;12.20;10.77;;;;;;;18.08;42.10;101321.28;5045772;28;20107;-69
2022/03/26 10:06:04;;;;;;;13.30;10.80;;;;;;;15.36;44.23;101338.44;5044975;28;20477;-69
2022/03/26 10:08:37;;;;;;;12.25;10.52;;;;;;;16.02;43.43;101308.44;5046553;28;20053;-72
2022/03/26 10:11:04;;;;;;;12.18;10.75;;;;;;;15.43;44.50;101304.94;5050605;28;20116;-74
2022/03/26 10:13:35;;;;;;;11.52;10.27;;;;;;;16.99;43.57;101290.03;5050713;28;20060;-72
2022/03/26 10:16:02;;;;;;;11.25;10.10;;;;;;;16.48;42.79;101318.16;5050384;28;20021;-72
2022/03/26 10:18:36;;;;;;;11.88;9.90;;;;;;;17.14;42.58;101307.50;5051215;28;20031;-70
2022/03/26 10:21:05;;;;;;;11.52;10.32;;;;;;;17.51;42.02;101304.53;5053575;28;20405;-69
2022/03/26 10:23:30;;;;;;;12.43;10.40;;;;;;;16.74;43.61;101281.44;5053614;28;20037;-70
2022/03/26 10:26:06;;;;;;;13.27;10.52;;;;;;;18.05;42.96;101295.66;5053577;28;20437;-72
2022/03/26 10:28:32;;;;;;;11.52;10.18;;;;;;;17.40;41.85;101270.59;5053495;28;20029;-71
2022/03/26 10:34:22;;;;;;;13.02;9.75;;;;;;;18.17;41.16;101278.91;5053358;28;20480;-73
2022/03/26 10:36:56;;;;;;;12.35;9.60;;;;;;;16.84;42.88;101260.53;5053280;28;20499;-71
2022/03/26 10:39:24;;;;;;;15.82;9.55;;;;;;;18.87;40.79;101272.69;5052796;28;20064;-73
2022/03/26 10:41:54;;;;;;;11.77;10.07;;;;;;;18.64;40.01;101267.59;5052782;28;20115;-71
2022/03/26 10:44:24;;;;;;;11.10;9.95;;;;;;;18.47;41.10;101269.19;5014058;28;20491;-68
2022/03/26 10:46:54;;;;;;;13.75;10.43;;;;;;;18.91;40.94;101266.50;5012339;28;20030;-70
2022/03/26 10:49:25;;;;;;;14.55;11.15;;;;;;;18.52;41.18;101262.13;5013422;28;20034;-71
2022/03/26 10:51:50;;;;;;;10.80;9.63;;;;;;;17.66;42.65;101253.41;5013449;28;20480;-73
2022/03/26 10:54:16;;;;;;;11.93;9.40;;;;;;;19.75;39.97;101233.56;5013830;28;20030;-70
2022/03/26 10:56:42;;;;;;;13.93;9.77;;;;;;;18.72;40.09;101255.25;5011782;28;20030;-70
2022/03/26 10:59:08;;;;;;;12.95;9.73;;;;;;;17.69;40.43;101229.28;5013558;28;20030;-69
2022/03/26 11:01:35;;;;;;;15.15;10.18;;;;;;;18.99;40.65;101238.63;5013202;28;20538;-69
2022/03/26 11:04:01;;;;;;;21.38;14.82;;;;;;;18.25;40.17;101227.94;5012080;28;20064;-71
2022/03/26 11:06:27;;;;;;;12.20;10.30;;;;;;;18.12;39.70;101235.31;5013497;28;20048;-72
2022/03/26 11:09:01;;;;;;;11.75;9.60;;;;;;;16.57;41.01;101217.78;5013427;28;20451;-73
2022/03/26 11:11:28;;;;;;;13.20;10.88;;;;;;;17.39;40.98;101212.38;5013771;28;20078;-72